Airfield :







YOU CAN JOIN US ON...

 
LOGIN :

Register | Disclaimer

   EN    FR    IT 

 









Legend :    VFR   Marginal VFR   IFR   Intensive IFR   Very Intensive IFR
Visi :
Ceiling :
>= 8 km
>= 3000ft
5 to 8 km
1000 to 3000 ft
1500m to 5 km
500 to 1000 ft
800 to 1500m
200 to 500 ft
< 800m
< 200 ft
Symbols :   Thunderstorms  Fog  Heavy snow  Heavy precipitations  Wind > 20 kt







- Airport Elevation : 1009 ft
- IATA code : ORH


KORH - Worcester Regional

CURRENT METAR :
  • 180254Z 00000KT 10SM FEW039 13/09 A3020 RMK AO2 SLP226 T01280094 51009

EXPIRED METARs :
  • 180154Z 13004KT 10SM CLR 13/10 A3019 RMK AO2 SLP226 T01330100
  • 180054Z 12004KT 10SM CLR 13/11 A3018 RMK AO2 SLP221 T01280106
  • 172354Z 12004KT 10SM FEW055 14/11 A3017 RMK AO2 SLP217 T01440106 10194 20144 53012

TAF KORH
Valid from the 18 at 00:00 until the 19 at 00:00 UTC


172320Z 1800/1824 07004KT P6SM SCT050
FM180400 05003KT P6SM FEW030 SCT060
FM180700 02005KT P6SM SCT035 BKN060
FM181500 04009KT P6SM FEW035 SCT060
FM182000 05007KT P6SM SCT200
No reported NOTAMs for that airfield.



MET'MAP, your aeronautical weather chart ! - Copyright ORBIFLY December 2007 - Disclaimer

ORBIFLY MET'MAP TEAM :

Programming & Development : Alexandra Zaïnal
Concept & Development : Baudouin d'Aumeries
Co-Development & Prog : Marc-Olivier Méhu
Technical & hardware support : Manuel Goepfert

Contact : metmap@orbifly.com




SOURCES & CREDITS :

   NOAA